Pagrindinis puslapis
METAR-TAF:

METAR-TAF

Oro uostai :

Alžyras, Alžyras

platuma: 36-43N, ilguma: 003-15E, Aukštis: 25 m

Dabartinis oras

Ataskaita buvo paskelbta 47 minutes, ne 04:00 UTC
Vėjas 3 kt iš Vakarų/Šiaurės Vakarų
Temperatūra 4°C
Drėgmė 100%
Slėgis 1030 hPa
Matomumas: 0800 m
Mažai debesys ne aukštis 1300 ft
rūkas

METAR: DAAG 220400Z 29003KT 0800 FG FEW013 04/04 Q1030

Laikas: 05:47 (04:47 UTC)

Prognozė

Ataskaita buvo paskelbta 1 valandą ir 12 minutes, ne 03:35 UTC
Prognozė galioja nuo 22 metu 03 UTC su 22 metu 24 UTC
Vėjas 2 kt nuo kintamojo kryptimis
Matomumas: 0800 m
Mažai debesys ne aukštis 1300 ft
rūkas
Laikinai
nuo 22 metu 03 UTC su 22 metu 05 UTC
Matomumas: 0100 m
Tapsmas
nuo 22 metu 05 UTC su 22 metu 08 UTC
Matomumas: 3000 m
rūkana
Tapsmas
nuo 22 metu 08 UTC su 22 metu 10 UTC
Matomumas: 6000 m
Tapsmas
nuo 22 metu 12 UTC su 22 metu 14 UTC
Vėjas 10 kt iš Šiaurės/Šiaurės Rytų

TAF: DAAG 220335Z 2203/2224 VRB02KT 0800 FG FEW013 TEMPO 2203/2205 0100 BECMG 2205/2208 3000 BR BECMG 2208/2210 6000 NSW BECMG 2212/2214 02010KT

Orai ataskaitas ir orų prognozės (METAR, TAF).

turimą stotys yra geltonos ir raudonos taškus žemėlapyje.

Perkelti pele per norėdami pamatyti stoties vardą.

Tada spustelėkite, norėdami matyti oro stebėjimo ir prognozės.

Norėdami pakeisti žemėlapį: spustelėkite ant žalios mygtukų su juodo kryžiaus žemyn,; žalią mygtuką su brūkšneliu, jei norite nutolinti; arba žalių rodyklių gretimoms žemėlapius.


METAR-TAF: